Wells Municipal-Harriet, NV

1:57 PM PST on December 18, 2014 (GMT -0800)
Elko Regional | Change Station
CLOSE
Current Station
Airport
Location: Elko,
Elevation: 5052 ft
Nearby Weather Stations

Elev 5052 ft 40.82 °N, 115.79 °W | Updated 1 hour ago

Mostly Cloudy
Mostly Cloudy
35 °F
Feels Like 31 °F
N
5
Wind Variable Wind from SSW

Today
High -- | Low -- °F
--% Chance of Precip.
Yesterday
High -- | Low -- °F
Precip. -- in
6:59 AM 4:12 PM
Waning Crescent, 12% visible
Pressure 30.19 in
Visibility 7.0 miles
Clouds Mostly Cloudy 4700 ft
Overcast 6000 ft
Windchill 31 °F
Dew Point 30 °F
Humidity 82%
Rainfall 0.00 in
Snow Depth Not available.
UV 1 out of 12
Pollen .10 out of 12
Air Quality Not available.
Flu Activity Not available.
METAR KEKO 182056Z AUTO 21004KT 7SM BKN047 OVC060 02/M01 A3013 RMK AO2 SLP222 T00171011 56008

More Conditions Fewer Conditions

Pressure 30.19 in
Visibility 7.0 miles
Clouds Mostly Cloudy 4700 ft
Overcast 6000 ft
Windchill 31 °F
Dew Point 30 °F
Humidity 82%
Rainfall 0.00 in
Snow Depth Not available.
UV 1 out of 12
Pollen .10 out of 12
Air Quality Not available.
Flu Activity Not available.
METAR KEKO 182056Z AUTO 21004KT 7SM BKN047 OVC060 02/M01 A3013 RMK AO2 SLP222 T00171011 56008

More Conditions Fewer Conditions

10-Day Weather Forecast

Almanac

Astronomy

Dec. 18, 2014 Rise Set
Actual Time
Civil Twilight
Nautical Twilight
Astronomical Twilight
Moon
Length of Visible Light
Length of Day
Tomorrow will be .
, % of the Moon is Illuminated

Today's Extremes

State Highs State Lows

Community

WunderPhotos

Upload Photos

1,778,999 photos uploaded!

WunderBlogs® & News

Nearby

Air Quality

  Air Quality AQ Index Pollutant
Not available.

Snow Depth

Station Depth Elevation

Earthquake Activity

City Distance Mag. Time & Date
Minimum magnitude displayed is 2.5.

Coastal Water Temperatures

Place Temperature

Nearby Weather Stations